Aérodrome :
LOGIN :

S'inscrire | Disclaimer

   EN    FR    IT 

 










Légende :    VFR   VFR Marginal   IFR   IFR Intensif   IFR Très Intensif
Visi : 
Plafond : 
>= 8 km
>= 3000ft
5 à 8 km
1000 à 3000 ft
1500m à 5 km
500 à 1000 ft
800 à 1500m
200 à 500 ft
< 800m
< 200 ft
Symboles :   Orages  Brouillard  Fortes neiges  Fortes précipitations  Vent > 20 kt
SIGMETs :   Divers  Orages  Givrage  Turbulence  Onde Orograph.  Cendres Volcan.






- Altitude de l'aérodrome : 765 ft


LOAV - Vöslau

DERNIER METAR :
  • 111000Z VRB02KT 25KM SCT020CU 26/19

METARs EXPIRÉS :
  • 110900Z 06012KT 25KM SCT050CU FEW050CB 25/19
  • 110800Z 05006KT 25KM FEW040CU 24/19

TAF TAF LOAV
Valide du 11 à 09h jusqu'au 11 à 18h UTC


110800Z 1109/1118 VRB05KT 9999 FEW040
TEMPO 1109/1118 VRB15G30KT TSRA BKN040 SCT050CB



MET'MAP, la Météo Aéronautique d'un coup d'oeil ! - Copyright ORBIFLY Décembre 2007 - Disclaimer

ORBIFLY MET'MAP TEAM :

Programmation & Développement : Alexandra Zaïnal
Sur une idée originale de : Baudouin d'Aumeries
Assistance à la programmation : Marc-Olivier Méhu
Soutien technique & logistique : Manuel Goepfert

Contact : metmap@orbifly.com




SOURCES & CREDITS :

   NOAA